sensor_id;sensor_type;location;lat;lon;timestamp;P1;durP1;ratioP1;P2;durP2;ratioP2
41532;SDS011;27262;-35.248;149.138;2023-06-24T00:02:12;2.22;;;0.57;;
41532;SDS011;27262;-35.248;149.138;2023-06-24T00:04:42;2.75;;;0.40;;
41532;SDS011;27262;-35.248;149.138;2023-06-24T00:07:13;1.25;;;0.40;;
41532;SDS011;27262;-35.248;149.138;2023-06-24T00:09:43;1.40;;;0.32;;
41532;SDS011;27262;-35.248;149.138;2023-06-24T00:12:13;2.22;;;0.47;;
41532;SDS011;27262;-35.248;149.138;2023-06-24T00:14:47;1.52;;;0.60;;
41532;SDS011;27262;-35.248;149.138;2023-06-24T00:17:19;2.92;;;0.50;;
41532;SDS011;27262;-35.248;149.138;2023-06-24T00:19:49;2.15;;;0.55;;
41532;SDS011;27262;-35.248;149.138;2023-06-24T00:22:23;4.05;;;0.55;;
41532;SDS011;27262;-35.248;149.138;2023-06-24T00:24:54;0.65;;;0.30;;
41532;SDS011;27262;-35.248;149.138;2023-06-24T00:27:25;3.15;;;0.40;;
41532;SDS011;27262;-35.248;149.138;2023-06-24T00:29:55;6.03;;;0.43;;
41532;SDS011;27262;-35.248;149.138;2023-06-24T00:32:26;2.90;;;0.47;;
41532;SDS011;27262;-35.248;149.138;2023-06-24T00:34:56;3.20;;;0.52;;
41532;SDS011;27262;-35.248;149.138;2023-06-24T00:37:28;4.35;;;0.80;;
41532;SDS011;27262;-35.248;149.138;2023-06-24T00:39:58;4.57;;;0.63;;
41532;SDS011;27262;-35.248;149.138;2023-06-24T00:42:29;2.97;;;0.60;;
41532;SDS011;27262;-35.248;149.138;2023-06-24T00:44:59;1.95;;;0.55;;
41532;SDS011;27262;-35.248;149.138;2023-06-24T00:47:33;5.30;;;0.60;;
41532;SDS011;27262;-35.248;149.138;2023-06-24T00:50:04;3.30;;;0.60;;
41532;SDS011;27262;-35.248;149.138;2023-06-24T00:52:35;4.03;;;0.88;;
41532;SDS011;27262;-35.248;149.138;2023-06-24T00:55:07;4.30;;;0.90;;
41532;SDS011;27262;-35.248;149.138;2023-06-24T00:57:44;2.80;;;1.00;;
41532;SDS011;27262;-35.248;149.138;2023-06-24T01:00:20;1.30;;;0.65;;
41532;SDS011;27262;-35.248;149.138;2023-06-24T01:02:51;2.22;;;0.75;;
41532;SDS011;27262;-35.248;149.138;2023-06-24T01:05:22;6.63;;;0.95;;
41532;SDS011;27262;-35.248;149.138;2023-06-24T01:07:53;5.13;;;0.85;;
41532;SDS011;27262;-35.248;149.138;2023-06-24T01:10:25;1.50;;;0.70;;
41532;SDS011;27262;-35.248;149.138;2023-06-24T01:12:56;2.50;;;0.63;;
41532;SDS011;27262;-35.248;149.138;2023-06-24T01:15:27;1.65;;;0.70;;
41532;SDS011;27262;-35.248;149.138;2023-06-24T01:28:43;3.70;;;0.60;;
41532;SDS011;27262;-35.248;149.138;2023-06-24T01:42:40;2.05;;;0.60;;
41532;SDS011;27262;-35.248;149.138;2023-06-24T01:45:13;1.13;;;0.55;;
41532;SDS011;27262;-35.248;149.138;2023-06-24T01:47:48;1.30;;;0.40;;
41532;SDS011;27262;-35.248;149.138;2023-06-24T01:50:28;4.28;;;0.70;;
41532;SDS011;27262;-35.248;149.138;2023-06-24T01:53:06;2.58;;;0.60;;
41532;SDS011;27262;-35.248;149.138;2023-06-24T01:55:38;2.22;;;0.55;;
41532;SDS011;27262;-35.248;149.138;2023-06-24T01:58:11;2.55;;;0.40;;
41532;SDS011;27262;-35.248;149.138;2023-06-24T02:00:43;0.95;;;0.30;;
41532;SDS011;27262;-35.248;149.138;2023-06-24T02:03:17;2.63;;;0.60;;
41532;SDS011;27262;-35.248;149.138;2023-06-24T02:05:49;2.10;;;0.50;;
41532;SDS011;27262;-35.248;149.138;2023-06-24T02:08:21;2.05;;;0.32;;
41532;SDS011;27262;-35.248;149.138;2023-06-24T02:10:55;2.28;;;0.38;;
41532;SDS011;27262;-35.248;149.138;2023-06-24T02:13:29;1.23;;;0.40;;
41532;SDS011;27262;-35.248;149.138;2023-06-24T02:16:04;1.08;;;0.28;;
41532;SDS011;27262;-35.248;149.138;2023-06-24T02:18:38;0.55;;;0.40;;
41532;SDS011;27262;-35.248;149.138;2023-06-24T02:21:12;2.08;;;0.30;;
41532;SDS011;27262;-35.248;149.138;2023-06-24T02:23:43;1.45;;;0.30;;
41532;SDS011;27262;-35.248;149.138;2023-06-24T02:26:14;0.55;;;0.40;;
41532;SDS011;27262;-35.248;149.138;2023-06-24T02:28:46;1.38;;;0.30;;
41532;SDS011;27262;-35.248;149.138;2023-06-24T02:31:17;2.58;;;0.40;;
41532;SDS011;27262;-35.248;149.138;2023-06-24T02:33:48;1.00;;;0.30;;
41532;SDS011;27262;-35.248;149.138;2023-06-24T02:36:19;2.35;;;0.50;;
41532;SDS011;27262;-35.248;149.138;2023-06-24T02:38:50;1.30;;;0.30;;
41532;SDS011;27262;-35.248;149.138;2023-06-24T02:41:20;3.20;;;0.40;;
41532;SDS011;27262;-35.248;149.138;2023-06-24T02:43:51;3.45;;;0.55;;
41532;SDS011;27262;-35.248;149.138;2023-06-24T02:46:21;1.98;;;0.57;;
41532;SDS011;27262;-35.248;149.138;2023-06-24T02:48:53;2.05;;;0.47;;
41532;SDS011;27262;-35.248;149.138;2023-06-24T02:51:25;2.55;;;0.47;;
41532;SDS011;27262;-35.248;149.138;2023-06-24T02:53:56;3.30;;;0.30;;
41532;SDS011;27262;-35.248;149.138;2023-06-24T02:56:28;2.38;;;0.30;;
41532;SDS011;27262;-35.248;149.138;2023-06-24T02:58:59;2.40;;;0.20;;
41532;SDS011;27262;-35.248;149.138;2023-06-24T03:01:29;0.75;;;0.30;;
41532;SDS011;27262;-35.248;149.138;2023-06-24T03:04:03;0.40;;;0.30;;
41532;SDS011;27262;-35.248;149.138;2023-06-24T03:06:34;1.63;;;0.30;;
41532;SDS011;27262;-35.248;149.138;2023-06-24T03:09:05;1.60;;;0.30;;
41532;SDS011;27262;-35.248;149.138;2023-06-24T03:11:42;1.80;;;0.50;;
41532;SDS011;27262;-35.248;149.138;2023-06-24T03:14:13;4.45;;;0.40;;
41532;SDS011;27262;-35.248;149.138;2023-06-24T03:16:44;2.20;;;0.30;;
41532;SDS011;27262;-35.248;149.138;2023-06-24T03:19:14;0.70;;;0.20;;
41532;SDS011;27262;-35.248;149.138;2023-06-24T03:21:45;1.33;;;0.20;;
41532;SDS011;27262;-35.248;149.138;2023-06-24T03:24:15;1.52;;;0.20;;
41532;SDS011;27262;-35.248;149.138;2023-06-24T03:26:46;1.48;;;0.30;;
41532;SDS011;27262;-35.248;149.138;2023-06-24T03:29:16;0.85;;;0.30;;
41532;SDS011;27262;-35.248;149.138;2023-06-24T03:31:47;0.63;;;0.30;;
41532;SDS011;27262;-35.248;149.138;2023-06-24T03:34:18;1.98;;;0.22;;
41532;SDS011;27262;-35.248;149.138;2023-06-24T03:36:49;2.90;;;0.20;;
41532;SDS011;27262;-35.248;149.138;2023-06-24T03:39:19;0.30;;;0.20;;
41532;SDS011;27262;-35.248;149.138;2023-06-24T03:41:50;2.92;;;0.30;;
41532;SDS011;27262;-35.248;149.138;2023-06-24T03:44:21;0.30;;;0.10;;
41532;SDS011;27262;-35.248;149.138;2023-06-24T03:46:51;0.80;;;0.20;;
41532;SDS011;27262;-35.248;149.138;2023-06-24T03:49:22;0.40;;;0.20;;
41532;SDS011;27262;-35.248;149.138;2023-06-24T03:51:52;0.70;;;0.20;;
41532;SDS011;27262;-35.248;149.138;2023-06-24T03:54:22;0.93;;;0.20;;
41532;SDS011;27262;-35.248;149.138;2023-06-24T03:56:53;0.60;;;0.20;;
41532;SDS011;27262;-35.248;149.138;2023-06-24T03:59:23;2.60;;;0.30;;
41532;SDS011;27262;-35.248;149.138;2023-06-24T04:01:53;0.30;;;0.20;;
41532;SDS011;27262;-35.248;149.138;2023-06-24T04:04:24;1.50;;;0.40;;
41532;SDS011;27262;-35.248;149.138;2023-06-24T04:06:54;0.55;;;0.30;;
41532;SDS011;27262;-35.248;149.138;2023-06-24T04:09:25;1.92;;;0.20;;
41532;SDS011;27262;-35.248;149.138;2023-06-24T04:11:55;0.32;;;0.20;;
41532;SDS011;27262;-35.248;149.138;2023-06-24T04:14:26;0.30;;;0.28;;
41532;SDS011;27262;-35.248;149.138;2023-06-24T04:16:58;1.85;;;0.20;;
41532;SDS011;27262;-35.248;149.138;2023-06-24T04:19:28;3.42;;;0.28;;
41532;SDS011;27262;-35.248;149.138;2023-06-24T04:21:59;0.77;;;0.20;;
41532;SDS011;27262;-35.248;149.138;2023-06-24T04:24:29;1.75;;;0.20;;
41532;SDS011;27262;-35.248;149.138;2023-06-24T04:27:00;2.03;;;0.30;;
41532;SDS011;27262;-35.248;149.138;2023-06-24T04:29:30;1.33;;;0.30;;
41532;SDS011;27262;-35.248;149.138;2023-06-24T04:32:00;1.35;;;0.38;;
41532;SDS011;27262;-35.248;149.138;2023-06-24T04:34:31;1.48;;;0.60;;
41532;SDS011;27262;-35.248;149.138;2023-06-24T04:37:01;2.10;;;0.30;;
41532;SDS011;27262;-35.248;149.138;2023-06-24T04:39:32;1.30;;;0.30;;
41532;SDS011;27262;-35.248;149.138;2023-06-24T04:42:03;0.52;;;0.35;;
41532;SDS011;27262;-35.248;149.138;2023-06-24T04:44:34;1.90;;;0.40;;
41532;SDS011;27262;-35.248;149.138;2023-06-24T04:47:06;1.00;;;0.35;;
41532;SDS011;27262;-35.248;149.138;2023-06-24T04:49:36;1.95;;;0.20;;
41532;SDS011;27262;-35.248;149.138;2023-06-24T04:52:07;3.20;;;0.30;;
41532;SDS011;27262;-35.248;149.138;2023-06-24T04:54:37;1.33;;;0.38;;
41532;SDS011;27262;-35.248;149.138;2023-06-24T04:57:08;1.05;;;0.30;;
41532;SDS011;27262;-35.248;149.138;2023-06-24T04:59:51;0.52;;;0.30;;
41532;SDS011;27262;-35.248;149.138;2023-06-24T05:02:22;0.70;;;0.40;;
41532;SDS011;27262;-35.248;149.138;2023-06-24T05:04:53;3.70;;;0.45;;
41532;SDS011;27262;-35.248;149.138;2023-06-24T05:07:24;2.70;;;0.50;;
41532;SDS011;27262;-35.248;149.138;2023-06-24T05:09:54;2.35;;;0.50;;
41532;SDS011;27262;-35.248;149.138;2023-06-24T05:12:25;1.85;;;0.43;;
41532;SDS011;27262;-35.248;149.138;2023-06-24T05:14:55;2.15;;;0.35;;
41532;SDS011;27262;-35.248;149.138;2023-06-24T05:17:25;1.67;;;0.35;;
41532;SDS011;27262;-35.248;149.138;2023-06-24T05:19:56;0.35;;;0.30;;
41532;SDS011;27262;-35.248;149.138;2023-06-24T05:22:27;2.83;;;0.50;;
41532;SDS011;27262;-35.248;149.138;2023-06-24T05:24:57;2.10;;;0.30;;
41532;SDS011;27262;-35.248;149.138;2023-06-24T05:27:28;1.33;;;0.40;;
41532;SDS011;27262;-35.248;149.138;2023-06-24T05:29:58;1.58;;;0.30;;
41532;SDS011;27262;-35.248;149.138;2023-06-24T05:32:29;0.28;;;0.20;;
41532;SDS011;27262;-35.248;149.138;2023-06-24T05:34:59;1.67;;;0.35;;
41532;SDS011;27262;-35.248;149.138;2023-06-24T05:37:29;0.30;;;0.20;;
41532;SDS011;27262;-35.248;149.138;2023-06-24T05:40:00;0.22;;;0.22;;
41532;SDS011;27262;-35.248;149.138;2023-06-24T05:42:31;1.33;;;0.40;;
41532;SDS011;27262;-35.248;149.138;2023-06-24T05:45:02;0.95;;;0.25;;
41532;SDS011;27262;-35.248;149.138;2023-06-24T05:47:33;2.20;;;0.22;;
41532;SDS011;27262;-35.248;149.138;2023-06-24T05:50:05;3.28;;;0.30;;
41532;SDS011;27262;-35.248;149.138;2023-06-24T05:52:36;2.15;;;0.30;;
41532;SDS011;27262;-35.248;149.138;2023-06-24T05:55:06;1.02;;;0.43;;
41532;SDS011;27262;-35.248;149.138;2023-06-24T05:57:37;2.60;;;0.20;;
41532;SDS011;27262;-35.248;149.138;2023-06-24T06:00:08;1.13;;;0.47;;
41532;SDS011;27262;-35.248;149.138;2023-06-24T06:02:39;0.80;;;0.30;;
41532;SDS011;27262;-35.248;149.138;2023-06-24T06:05:25;0.38;;;0.30;;
41532;SDS011;27262;-35.248;149.138;2023-06-24T06:08:11;0.52;;;0.30;;
41532;SDS011;27262;-35.248;149.138;2023-06-24T06:10:58;0.63;;;0.25;;
41532;SDS011;27262;-35.248;149.138;2023-06-24T06:13:46;1.48;;;0.30;;
41532;SDS011;27262;-35.248;149.138;2023-06-24T06:16:32;0.65;;;0.20;;
41532;SDS011;27262;-35.248;149.138;2023-06-24T06:19:03;3.17;;;0.30;;
41532;SDS011;27262;-35.248;149.138;2023-06-24T06:21:36;2.33;;;0.30;;
41532;SDS011;27262;-35.248;149.138;2023-06-24T06:24:06;2.10;;;0.25;;
41532;SDS011;27262;-35.248;149.138;2023-06-24T06:26:41;1.73;;;0.30;;
41532;SDS011;27262;-35.248;149.138;2023-06-24T06:29:12;3.65;;;0.30;;
41532;SDS011;27262;-35.248;149.138;2023-06-24T06:31:43;0.60;;;0.20;;
41532;SDS011;27262;-35.248;149.138;2023-06-24T06:34:14;1.15;;;0.30;;
41532;SDS011;27262;-35.248;149.138;2023-06-24T06:36:44;1.70;;;0.30;;
41532;SDS011;27262;-35.248;149.138;2023-06-24T06:39:15;0.98;;;0.30;;
41532;SDS011;27262;-35.248;149.138;2023-06-24T06:41:45;0.80;;;0.20;;
41532;SDS011;27262;-35.248;149.138;2023-06-24T06:44:16;1.45;;;0.20;;
41532;SDS011;27262;-35.248;149.138;2023-06-24T06:46:46;0.88;;;0.28;;
41532;SDS011;27262;-35.248;149.138;2023-06-24T06:49:17;0.17;;;0.10;;
41532;SDS011;27262;-35.248;149.138;2023-06-24T06:51:47;1.17;;;0.20;;
41532;SDS011;27262;-35.248;149.138;2023-06-24T06:54:17;0.43;;;0.20;;
41532;SDS011;27262;-35.248;149.138;2023-06-24T06:56:48;0.90;;;0.30;;
41532;SDS011;27262;-35.248;149.138;2023-06-24T06:59:18;0.30;;;0.20;;
41532;SDS011;27262;-35.248;149.138;2023-06-24T07:01:49;1.73;;;0.20;;
41532;SDS011;27262;-35.248;149.138;2023-06-24T07:04:20;0.15;;;0.15;;
41532;SDS011;27262;-35.248;149.138;2023-06-24T07:06:51;0.73;;;0.20;;
41532;SDS011;27262;-35.248;149.138;2023-06-24T07:09:22;2.53;;;0.40;;
41532;SDS011;27262;-35.248;149.138;2023-06-24T07:11:53;0.63;;;0.25;;
41532;SDS011;27262;-35.248;149.138;2023-06-24T07:14:24;0.20;;;0.20;;
41532;SDS011;27262;-35.248;149.138;2023-06-24T07:16:55;1.42;;;0.20;;
41532;SDS011;27262;-35.248;149.138;2023-06-24T07:19:26;0.63;;;0.20;;
41532;SDS011;27262;-35.248;149.138;2023-06-24T07:21:56;2.15;;;0.30;;
41532;SDS011;27262;-35.248;149.138;2023-06-24T07:24:26;0.40;;;0.20;;
41532;SDS011;27262;-35.248;149.138;2023-06-24T07:26:57;0.95;;;0.30;;
41532;SDS011;27262;-35.248;149.138;2023-06-24T07:29:28;1.02;;;0.25;;
41532;SDS011;27262;-35.248;149.138;2023-06-24T07:31:58;1.60;;;0.28;;
41532;SDS011;27262;-35.248;149.138;2023-06-24T07:34:29;0.88;;;0.22;;
41532;SDS011;27262;-35.248;149.138;2023-06-24T07:36:59;0.90;;;0.30;;
41532;SDS011;27262;-35.248;149.138;2023-06-24T07:39:45;1.15;;;0.35;;
41532;SDS011;27262;-35.248;149.138;2023-06-24T07:42:15;1.48;;;0.38;;
41532;SDS011;27262;-35.248;149.138;2023-06-24T07:44:47;1.75;;;0.30;;
41532;SDS011;27262;-35.248;149.138;2023-06-24T07:47:18;0.35;;;0.30;;
41532;SDS011;27262;-35.248;149.138;2023-06-24T07:49:48;3.30;;;0.30;;
41532;SDS011;27262;-35.248;149.138;2023-06-24T07:52:19;1.63;;;0.45;;
41532;SDS011;27262;-35.248;149.138;2023-06-24T07:54:49;0.68;;;0.30;;
41532;SDS011;27262;-35.248;149.138;2023-06-24T07:57:20;0.73;;;0.30;;
41532;SDS011;27262;-35.248;149.138;2023-06-24T07:59:51;1.27;;;0.40;;
41532;SDS011;27262;-35.248;149.138;2023-06-24T08:02:23;1.23;;;0.40;;
41532;SDS011;27262;-35.248;149.138;2023-06-24T08:04:54;2.50;;;0.52;;
41532;SDS011;27262;-35.248;149.138;2023-06-24T08:07:25;1.42;;;0.40;;
41532;SDS011;27262;-35.248;149.138;2023-06-24T08:09:55;1.35;;;0.52;;
41532;SDS011;27262;-35.248;149.138;2023-06-24T08:12:26;0.52;;;0.30;;
41532;SDS011;27262;-35.248;149.138;2023-06-24T08:14:56;4.03;;;0.40;;
41532;SDS011;27262;-35.248;149.138;2023-06-24T08:17:27;1.27;;;0.50;;
41532;SDS011;27262;-35.248;149.138;2023-06-24T08:19:57;2.53;;;0.50;;
41532;SDS011;27262;-35.248;149.138;2023-06-24T08:22:28;2.80;;;0.40;;
41532;SDS011;27262;-35.248;149.138;2023-06-24T08:24:58;1.90;;;0.40;;
41532;SDS011;27262;-35.248;149.138;2023-06-24T08:27:29;0.45;;;0.30;;
41532;SDS011;27262;-35.248;149.138;2023-06-24T08:29:59;1.50;;;0.60;;
41532;SDS011;27262;-35.248;149.138;2023-06-24T08:32:30;1.55;;;0.50;;
41532;SDS011;27262;-35.248;149.138;2023-06-24T08:35:00;1.15;;;0.35;;
41532;SDS011;27262;-35.248;149.138;2023-06-24T08:37:31;1.75;;;0.50;;
41532;SDS011;27262;-35.248;149.138;2023-06-24T08:40:01;0.50;;;0.30;;
41532;SDS011;27262;-35.248;149.138;2023-06-24T08:42:33;1.15;;;0.47;;
41532;SDS011;27262;-35.248;149.138;2023-06-24T08:45:04;2.35;;;0.52;;
41532;SDS011;27262;-35.248;149.138;2023-06-24T08:47:36;1.45;;;0.57;;
41532;SDS011;27262;-35.248;149.138;2023-06-24T08:50:08;2.40;;;0.60;;
41532;SDS011;27262;-35.248;149.138;2023-06-24T08:52:42;1.65;;;0.50;;
41532;SDS011;27262;-35.248;149.138;2023-06-24T08:55:19;0.80;;;0.40;;
41532;SDS011;27262;-35.248;149.138;2023-06-24T08:57:52;2.92;;;0.40;;
41532;SDS011;27262;-35.248;149.138;2023-06-24T09:00:23;1.05;;;0.45;;
41532;SDS011;27262;-35.248;149.138;2023-06-24T09:02:54;0.45;;;0.32;;
41532;SDS011;27262;-35.248;149.138;2023-06-24T09:05:25;2.00;;;0.50;;
41532;SDS011;27262;-35.248;149.138;2023-06-24T09:07:56;0.52;;;0.43;;
41532;SDS011;27262;-35.248;149.138;2023-06-24T09:10:33;0.60;;;0.30;;
41532;SDS011;27262;-35.248;149.138;2023-06-24T09:13:06;1.13;;;0.60;;
41532;SDS011;27262;-35.248;149.138;2023-06-24T09:15:37;0.40;;;0.30;;
41532;SDS011;27262;-35.248;149.138;2023-06-24T09:18:08;1.85;;;0.30;;
41532;SDS011;27262;-35.248;149.138;2023-06-24T09:20:41;1.02;;;0.50;;
41532;SDS011;27262;-35.248;149.138;2023-06-24T09:23:14;0.65;;;0.38;;
41532;SDS011;27262;-35.248;149.138;2023-06-24T09:25:54;0.40;;;0.35;;
41532;SDS011;27262;-35.248;149.138;2023-06-24T09:28:28;2.05;;;0.25;;
41532;SDS011;27262;-35.248;149.138;2023-06-24T09:31:08;0.50;;;0.30;;
41532;SDS011;27262;-35.248;149.138;2023-06-24T09:33:41;2.17;;;0.40;;
41532;SDS011;27262;-35.248;149.138;2023-06-24T09:36:14;0.40;;;0.30;;
41532;SDS011;27262;-35.248;149.138;2023-06-24T09:38:45;0.60;;;0.40;;
41532;SDS011;27262;-35.248;149.138;2023-06-24T09:41:17;1.83;;;0.32;;
41532;SDS011;27262;-35.248;149.138;2023-06-24T09:43:47;1.92;;;0.40;;
41532;SDS011;27262;-35.248;149.138;2023-06-24T09:46:18;2.60;;;0.50;;
41532;SDS011;27262;-35.248;149.138;2023-06-24T09:48:49;0.70;;;0.50;;
41532;SDS011;27262;-35.248;149.138;2023-06-24T09:51:20;1.15;;;0.50;;
41532;SDS011;27262;-35.248;149.138;2023-06-24T09:53:51;1.13;;;0.50;;
41532;SDS011;27262;-35.248;149.138;2023-06-24T09:56:26;0.52;;;0.38;;
41532;SDS011;27262;-35.248;149.138;2023-06-24T09:58:57;0.52;;;0.40;;
41532;SDS011;27262;-35.248;149.138;2023-06-24T10:01:27;1.23;;;0.47;;
41532;SDS011;27262;-35.248;149.138;2023-06-24T10:03:58;2.22;;;0.65;;
41532;SDS011;27262;-35.248;149.138;2023-06-24T10:06:30;0.70;;;0.55;;
41532;SDS011;27262;-35.248;149.138;2023-06-24T10:09:01;0.90;;;0.68;;
41532;SDS011;27262;-35.248;149.138;2023-06-24T10:11:32;1.08;;;0.57;;
41532;SDS011;27262;-35.248;149.138;2023-06-24T10:14:03;1.00;;;0.52;;
41532;SDS011;27262;-35.248;149.138;2023-06-24T10:16:33;0.70;;;0.60;;
41532;SDS011;27262;-35.248;149.138;2023-06-24T10:19:04;2.05;;;0.70;;
41532;SDS011;27262;-35.248;149.138;2023-06-24T10:21:49;8.60;;;0.70;;
41532;SDS011;27262;-35.248;149.138;2023-06-24T10:27:22;0.68;;;0.50;;
41532;SDS011;27262;-35.248;149.138;2023-06-24T10:29:53;1.30;;;0.70;;
41532;SDS011;27262;-35.248;149.138;2023-06-24T10:32:26;1.33;;;0.70;;
41532;SDS011;27262;-35.248;149.138;2023-06-24T10:35:22;1.25;;;0.70;;
41532;SDS011;27262;-35.248;149.138;2023-06-24T10:37:55;0.50;;;0.50;;
41532;SDS011;27262;-35.248;149.138;2023-06-24T10:43:44;2.25;;;0.70;;
41532;SDS011;27262;-35.248;149.138;2023-06-24T10:46:14;3.92;;;0.88;;
41532;SDS011;27262;-35.248;149.138;2023-06-24T10:48:45;1.92;;;0.60;;
41532;SDS011;27262;-35.248;149.138;2023-06-24T10:51:16;1.25;;;0.60;;
41532;SDS011;27262;-35.248;149.138;2023-06-24T10:53:46;1.05;;;0.63;;
41532;SDS011;27262;-35.248;149.138;2023-06-24T10:56:17;1.20;;;0.70;;
41532;SDS011;27262;-35.248;149.138;2023-06-24T10:58:55;0.75;;;0.50;;
41532;SDS011;27262;-35.248;149.138;2023-06-24T11:01:27;2.45;;;0.68;;
41532;SDS011;27262;-35.248;149.138;2023-06-24T11:04:05;0.82;;;0.65;;
41532;SDS011;27262;-35.248;149.138;2023-06-24T11:06:38;1.13;;;0.50;;
41532;SDS011;27262;-35.248;149.138;2023-06-24T11:09:10;0.63;;;0.50;;
41532;SDS011;27262;-35.248;149.138;2023-06-24T11:11:40;2.13;;;0.52;;
41532;SDS011;27262;-35.248;149.138;2023-06-24T11:14:10;2.50;;;0.60;;
41532;SDS011;27262;-35.248;149.138;2023-06-24T11:16:41;1.13;;;0.68;;
41532;SDS011;27262;-35.248;149.138;2023-06-24T11:19:12;1.13;;;0.52;;
41532;SDS011;27262;-35.248;149.138;2023-06-24T11:21:44;0.90;;;0.63;;
41532;SDS011;27262;-35.248;149.138;2023-06-24T11:24:15;1.23;;;0.50;;
41532;SDS011;27262;-35.248;149.138;2023-06-24T11:26:45;0.73;;;0.60;;
41532;SDS011;27262;-35.248;149.138;2023-06-24T11:29:16;1.48;;;0.73;;
41532;SDS011;27262;-35.248;149.138;2023-06-24T11:31:46;1.70;;;0.95;;
41532;SDS011;27262;-35.248;149.138;2023-06-24T11:34:17;0.93;;;0.52;;
41532;SDS011;27262;-35.248;149.138;2023-06-24T11:36:47;1.08;;;0.70;;
41532;SDS011;27262;-35.248;149.138;2023-06-24T11:39:21;1.30;;;0.68;;
41532;SDS011;27262;-35.248;149.138;2023-06-24T11:41:53;4.43;;;0.70;;
41532;SDS011;27262;-35.248;149.138;2023-06-24T11:44:27;2.67;;;0.75;;
41532;SDS011;27262;-35.248;149.138;2023-06-24T11:47:07;1.23;;;0.60;;
41532;SDS011;27262;-35.248;149.138;2023-06-24T11:52:38;1.70;;;0.60;;
41532;SDS011;27262;-35.248;149.138;2023-06-24T11:55:20;1.85;;;0.70;;
41532;SDS011;27262;-35.248;149.138;2023-06-24T11:57:59;4.10;;;0.70;;
41532;SDS011;27262;-35.248;149.138;2023-06-24T12:00:37;2.63;;;0.88;;
41532;SDS011;27262;-35.248;149.138;2023-06-24T12:03:13;3.25;;;0.52;;
41532;SDS011;27262;-35.248;149.138;2023-06-24T12:05:46;2.08;;;0.60;;
41532;SDS011;27262;-35.248;149.138;2023-06-24T12:08:17;2.90;;;0.70;;
41532;SDS011;27262;-35.248;149.138;2023-06-24T12:11:15;1.70;;;0.57;;
41532;SDS011;27262;-35.248;149.138;2023-06-24T12:13:46;2.53;;;0.77;;
41532;SDS011;27262;-35.248;149.138;2023-06-24T12:16:16;1.05;;;0.50;;
41532;SDS011;27262;-35.248;149.138;2023-06-24T12:18:47;2.25;;;0.65;;
41532;SDS011;27262;-35.248;149.138;2023-06-24T12:21:17;1.05;;;0.50;;
41532;SDS011;27262;-35.248;149.138;2023-06-24T12:23:48;2.05;;;0.60;;
41532;SDS011;27262;-35.248;149.138;2023-06-24T12:26:18;4.38;;;0.77;;
41532;SDS011;27262;-35.248;149.138;2023-06-24T12:28:49;3.60;;;1.02;;
41532;SDS011;27262;-35.248;149.138;2023-06-24T12:31:21;3.35;;;0.52;;
41532;SDS011;27262;-35.248;149.138;2023-06-24T12:33:52;1.55;;;0.95;;
41532;SDS011;27262;-35.248;149.138;2023-06-24T12:36:23;1.67;;;0.70;;
41532;SDS011;27262;-35.248;149.138;2023-06-24T12:38:55;1.00;;;0.70;;
41532;SDS011;27262;-35.248;149.138;2023-06-24T12:41:25;2.55;;;0.80;;
41532;SDS011;27262;-35.248;149.138;2023-06-24T12:43:56;1.20;;;0.50;;
41532;SDS011;27262;-35.248;149.138;2023-06-24T12:46:27;2.88;;;0.68;;
41532;SDS011;27262;-35.248;149.138;2023-06-24T12:49:01;2.78;;;0.80;;
41532;SDS011;27262;-35.248;149.138;2023-06-24T12:51:31;6.20;;;0.80;;
41532;SDS011;27262;-35.248;149.138;2023-06-24T12:54:02;0.60;;;0.50;;
41532;SDS011;27262;-35.248;149.138;2023-06-24T12:56:32;1.17;;;0.50;;
41532;SDS011;27262;-35.248;149.138;2023-06-24T12:59:03;1.75;;;0.60;;
41532;SDS011;27262;-35.248;149.138;2023-06-24T13:01:34;3.53;;;0.70;;
41532;SDS011;27262;-35.248;149.138;2023-06-24T13:04:04;0.85;;;0.50;;
41532;SDS011;27262;-35.248;149.138;2023-06-24T13:06:35;1.63;;;0.52;;
41532;SDS011;27262;-35.248;149.138;2023-06-24T13:09:05;0.77;;;0.60;;
41532;SDS011;27262;-35.248;149.138;2023-06-24T13:11:36;2.50;;;0.60;;
41532;SDS011;27262;-35.248;149.138;2023-06-24T13:14:07;2.60;;;0.60;;
41532;SDS011;27262;-35.248;149.138;2023-06-24T13:16:38;0.93;;;0.60;;
41532;SDS011;27262;-35.248;149.138;2023-06-24T13:19:08;2.75;;;0.70;;
41532;SDS011;27262;-35.248;149.138;2023-06-24T13:21:42;0.88;;;0.40;;
41532;SDS011;27262;-35.248;149.138;2023-06-24T13:24:12;1.05;;;0.50;;
41532;SDS011;27262;-35.248;149.138;2023-06-24T13:26:43;0.70;;;0.47;;
41532;SDS011;27262;-35.248;149.138;2023-06-24T13:29:13;1.13;;;0.60;;
41532;SDS011;27262;-35.248;149.138;2023-06-24T13:31:44;2.35;;;0.60;;
41532;SDS011;27262;-35.248;149.138;2023-06-24T13:34:14;0.98;;;0.80;;
41532;SDS011;27262;-35.248;149.138;2023-06-24T13:36:45;0.60;;;0.47;;
41532;SDS011;27262;-35.248;149.138;2023-06-24T13:39:16;0.40;;;0.30;;
41532;SDS011;27262;-35.248;149.138;2023-06-24T13:41:46;1.08;;;0.50;;
41532;SDS011;27262;-35.248;149.138;2023-06-24T13:44:17;1.30;;;0.60;;
41532;SDS011;27262;-35.248;149.138;2023-06-24T13:46:47;1.30;;;0.40;;
41532;SDS011;27262;-35.248;149.138;2023-06-24T13:49:19;1.55;;;0.60;;
41532;SDS011;27262;-35.248;149.138;2023-06-24T13:52:04;0.95;;;0.50;;
41532;SDS011;27262;-35.248;149.138;2023-06-24T13:54:35;0.40;;;0.30;;
41532;SDS011;27262;-35.248;149.138;2023-06-24T13:57:05;1.33;;;0.65;;
41532;SDS011;27262;-35.248;149.138;2023-06-24T13:59:36;1.40;;;0.47;;
41532;SDS011;27262;-35.248;149.138;2023-06-24T14:02:06;0.57;;;0.40;;
41532;SDS011;27262;-35.248;149.138;2023-06-24T14:04:37;2.30;;;0.43;;
41532;SDS011;27262;-35.248;149.138;2023-06-24T14:07:08;2.22;;;0.43;;
41532;SDS011;27262;-35.248;149.138;2023-06-24T14:09:39;0.70;;;0.30;;
41532;SDS011;27262;-35.248;149.138;2023-06-24T14:12:09;0.60;;;0.45;;
41532;SDS011;27262;-35.248;149.138;2023-06-24T14:14:40;0.40;;;0.30;;
41532;SDS011;27262;-35.248;149.138;2023-06-24T14:17:10;0.63;;;0.40;;
41532;SDS011;27262;-35.248;149.138;2023-06-24T14:19:41;0.60;;;0.40;;
41532;SDS011;27262;-35.248;149.138;2023-06-24T14:22:11;1.98;;;0.40;;
41532;SDS011;27262;-35.248;149.138;2023-06-24T14:24:41;0.60;;;0.40;;
41532;SDS011;27262;-35.248;149.138;2023-06-24T14:27:12;0.85;;;0.50;;
41532;SDS011;27262;-35.248;149.138;2023-06-24T14:29:42;0.40;;;0.30;;
41532;SDS011;27262;-35.248;149.138;2023-06-24T14:32:12;6.85;;;0.55;;
41532;SDS011;27262;-35.248;149.138;2023-06-24T14:34:43;1.98;;;0.50;;
41532;SDS011;27262;-35.248;149.138;2023-06-24T14:37:13;0.60;;;0.35;;
41532;SDS011;27262;-35.248;149.138;2023-06-24T14:39:44;0.50;;;0.30;;
41532;SDS011;27262;-35.248;149.138;2023-06-24T14:42:14;0.80;;;0.47;;
41532;SDS011;27262;-35.248;149.138;2023-06-24T14:44:44;0.60;;;0.43;;
41532;SDS011;27262;-35.248;149.138;2023-06-24T14:47:15;2.53;;;0.55;;
41532;SDS011;27262;-35.248;149.138;2023-06-24T14:49:45;0.35;;;0.30;;
41532;SDS011;27262;-35.248;149.138;2023-06-24T14:52:16;0.50;;;0.40;;
41532;SDS011;27262;-35.248;149.138;2023-06-24T14:54:46;1.17;;;0.50;;
41532;SDS011;27262;-35.248;149.138;2023-06-24T14:57:17;0.57;;;0.32;;
41532;SDS011;27262;-35.248;149.138;2023-06-24T14:59:47;1.25;;;0.40;;
41532;SDS011;27262;-35.248;149.138;2023-06-24T15:02:18;0.98;;;0.43;;
41532;SDS011;27262;-35.248;149.138;2023-06-24T15:04:48;0.63;;;0.40;;
41532;SDS011;27262;-35.248;149.138;2023-06-24T15:07:18;0.73;;;0.50;;